sensor_id;sensor_type;location;lat;lon;timestamp;P1;durP1;ratioP1;P2;durP2;ratioP2
18021;SDS011;9136;48.822;7.966;2023-03-21T00:00:47;18.57;;;17.77;;
18021;SDS011;9136;48.822;7.966;2023-03-21T00:03:43;16.60;;;15.80;;
18021;SDS011;9136;48.822;7.966;2023-03-21T00:06:31;17.50;;;16.60;;
18021;SDS011;9136;48.822;7.966;2023-03-21T00:09:33;17.97;;;17.17;;
18021;SDS011;9136;48.822;7.966;2023-03-21T00:15:57;16.47;;;15.77;;
18021;SDS011;9136;48.822;7.966;2023-03-21T00:18:55;17.13;;;16.33;;
18021;SDS011;9136;48.822;7.966;2023-03-21T00:21:43;17.80;;;17.00;;
18021;SDS011;9136;48.822;7.966;2023-03-21T00:27:55;18.40;;;17.50;;
18021;SDS011;9136;48.822;7.966;2023-03-21T00:30:43;16.97;;;16.17;;
18021;SDS011;9136;48.822;7.966;2023-03-21T00:33:34;16.33;;;15.57;;
18021;SDS011;9136;48.822;7.966;2023-03-21T00:36:25;16.63;;;15.93;;
18021;SDS011;9136;48.822;7.966;2023-03-21T00:39:13;16.93;;;16.13;;
18021;SDS011;9136;48.822;7.966;2023-03-21T00:42:02;20.27;;;18.97;;
18021;SDS011;9136;48.822;7.966;2023-03-21T00:44:51;17.23;;;16.30;;
18021;SDS011;9136;48.822;7.966;2023-03-21T00:47:39;16.17;;;15.17;;
18021;SDS011;9136;48.822;7.966;2023-03-21T00:50:28;20.03;;;19.03;;
18021;SDS011;9136;48.822;7.966;2023-03-21T00:53:19;19.87;;;18.50;;
18021;SDS011;9136;48.822;7.966;2023-03-21T00:56:07;16.90;;;16.20;;
18021;SDS011;9136;48.822;7.966;2023-03-21T00:58:56;18.63;;;17.73;;
18021;SDS011;9136;48.822;7.966;2023-03-21T01:01:44;18.93;;;17.53;;
18021;SDS011;9136;48.822;7.966;2023-03-21T01:04:32;20.23;;;19.23;;
18021;SDS011;9136;48.822;7.966;2023-03-21T01:07:21;17.00;;;16.30;;
18021;SDS011;9136;48.822;7.966;2023-03-21T01:10:12;18.60;;;17.73;;
18021;SDS011;9136;48.822;7.966;2023-03-21T01:13:02;17.87;;;17.07;;
18021;SDS011;9136;48.822;7.966;2023-03-21T01:15:51;17.23;;;16.10;;
18021;SDS011;9136;48.822;7.966;2023-03-21T01:18:43;22.77;;;17.67;;
18021;SDS011;9136;48.822;7.966;2023-03-21T01:21:32;17.77;;;16.97;;
18021;SDS011;9136;48.822;7.966;2023-03-21T01:24:20;18.57;;;17.73;;
18021;SDS011;9136;48.822;7.966;2023-03-21T01:27:15;19.03;;;18.07;;
18021;SDS011;9136;48.822;7.966;2023-03-21T01:30:05;15.77;;;15.07;;
18021;SDS011;9136;48.822;7.966;2023-03-21T01:33:12;17.70;;;16.90;;
18021;SDS011;9136;48.822;7.966;2023-03-21T01:36:00;19.13;;;17.90;;
18021;SDS011;9136;48.822;7.966;2023-03-21T01:38:50;19.30;;;18.23;;
18021;SDS011;9136;48.822;7.966;2023-03-21T01:41:40;20.23;;;19.10;;
18021;SDS011;9136;48.822;7.966;2023-03-21T01:44:30;19.43;;;18.57;;
18021;SDS011;9136;48.822;7.966;2023-03-21T01:47:21;18.00;;;17.20;;
18021;SDS011;9136;48.822;7.966;2023-03-21T01:50:09;18.73;;;17.83;;
18021;SDS011;9136;48.822;7.966;2023-03-21T01:52:58;19.70;;;18.83;;
18021;SDS011;9136;48.822;7.966;2023-03-21T01:55:47;20.17;;;19.17;;
18021;SDS011;9136;48.822;7.966;2023-03-21T01:58:37;18.43;;;17.53;;
18021;SDS011;9136;48.822;7.966;2023-03-21T02:01:31;21.13;;;20.13;;
18021;SDS011;9136;48.822;7.966;2023-03-21T02:04:23;19.43;;;18.60;;
18021;SDS011;9136;48.822;7.966;2023-03-21T02:07:13;18.47;;;17.57;;
18021;SDS011;9136;48.822;7.966;2023-03-21T02:10:04;17.47;;;16.57;;
18021;SDS011;9136;48.822;7.966;2023-03-21T02:12:55;18.90;;;18.03;;
18021;SDS011;9136;48.822;7.966;2023-03-21T02:15:57;20.47;;;19.57;;
18021;SDS011;9136;48.822;7.966;2023-03-21T02:18:54;18.77;;;17.93;;
18021;SDS011;9136;48.822;7.966;2023-03-21T02:22:01;17.07;;;16.27;;
18021;SDS011;9136;48.822;7.966;2023-03-21T02:28:38;19.03;;;18.13;;
18021;SDS011;9136;48.822;7.966;2023-03-21T02:31:35;19.53;;;18.63;;
18021;SDS011;9136;48.822;7.966;2023-03-21T02:34:47;19.40;;;18.50;;
18021;SDS011;9136;48.822;7.966;2023-03-21T02:37:48;19.37;;;18.47;;
18021;SDS011;9136;48.822;7.966;2023-03-21T02:40:47;19.50;;;18.60;;
18021;SDS011;9136;48.822;7.966;2023-03-21T02:43:45;18.73;;;17.93;;
18021;SDS011;9136;48.822;7.966;2023-03-21T02:46:42;21.63;;;20.63;;
18021;SDS011;9136;48.822;7.966;2023-03-21T02:49:38;19.83;;;18.93;;
18021;SDS011;9136;48.822;7.966;2023-03-21T02:52:31;17.80;;;17.00;;
18021;SDS011;9136;48.822;7.966;2023-03-21T02:55:24;18.90;;;18.10;;
18021;SDS011;9136;48.822;7.966;2023-03-21T02:58:14;17.07;;;16.27;;
18021;SDS011;9136;48.822;7.966;2023-03-21T03:01:05;19.43;;;18.43;;
18021;SDS011;9136;48.822;7.966;2023-03-21T03:03:54;22.70;;;21.67;;
18021;SDS011;9136;48.822;7.966;2023-03-21T03:06:43;19.93;;;18.90;;
18021;SDS011;9136;48.822;7.966;2023-03-21T03:09:50;17.27;;;16.47;;
18021;SDS011;9136;48.822;7.966;2023-03-21T03:12:58;21.30;;;20.20;;
18021;SDS011;9136;48.822;7.966;2023-03-21T03:15:59;18.77;;;17.87;;
18021;SDS011;9136;48.822;7.966;2023-03-21T03:18:57;20.33;;;19.33;;
18021;SDS011;9136;48.822;7.966;2023-03-21T03:21:48;19.90;;;19.00;;
18021;SDS011;9136;48.822;7.966;2023-03-21T03:24:43;18.33;;;17.43;;
18021;SDS011;9136;48.822;7.966;2023-03-21T03:27:39;19.43;;;18.53;;
18021;SDS011;9136;48.822;7.966;2023-03-21T03:30:33;17.43;;;16.57;;
18021;SDS011;9136;48.822;7.966;2023-03-21T03:33:25;19.60;;;18.60;;
18021;SDS011;9136;48.822;7.966;2023-03-21T03:36:15;19.03;;;18.10;;
18021;SDS011;9136;48.822;7.966;2023-03-21T03:39:05;19.17;;;18.30;;
18021;SDS011;9136;48.822;7.966;2023-03-21T03:42:00;21.23;;;20.07;;
18021;SDS011;9136;48.822;7.966;2023-03-21T03:44:53;18.97;;;18.10;;
18021;SDS011;9136;48.822;7.966;2023-03-21T03:47:44;20.00;;;19.10;;
18021;SDS011;9136;48.822;7.966;2023-03-21T03:50:37;19.47;;;18.47;;
18021;SDS011;9136;48.822;7.966;2023-03-21T03:53:28;19.87;;;18.87;;
18021;SDS011;9136;48.822;7.966;2023-03-21T03:56:22;19.60;;;18.70;;
18021;SDS011;9136;48.822;7.966;2023-03-21T03:59:11;18.90;;;18.00;;
18021;SDS011;9136;48.822;7.966;2023-03-21T04:02:12;19.77;;;18.87;;
18021;SDS011;9136;48.822;7.966;2023-03-21T04:05:03;18.67;;;17.83;;
18021;SDS011;9136;48.822;7.966;2023-03-21T04:07:52;19.37;;;18.43;;
18021;SDS011;9136;48.822;7.966;2023-03-21T04:10:46;19.50;;;18.60;;
18021;SDS011;9136;48.822;7.966;2023-03-21T04:13:35;19.70;;;18.80;;
18021;SDS011;9136;48.822;7.966;2023-03-21T04:16:23;19.30;;;18.40;;
18021;SDS011;9136;48.822;7.966;2023-03-21T04:19:13;22.40;;;21.30;;
18021;SDS011;9136;48.822;7.966;2023-03-21T04:22:03;17.10;;;16.30;;
18021;SDS011;9136;48.822;7.966;2023-03-21T04:24:51;20.03;;;19.03;;
18021;SDS011;9136;48.822;7.966;2023-03-21T04:27:39;18.07;;;17.17;;
18021;SDS011;9136;48.822;7.966;2023-03-21T04:30:27;20.70;;;19.73;;
18021;SDS011;9136;48.822;7.966;2023-03-21T04:33:19;19.57;;;18.57;;
18021;SDS011;9136;48.822;7.966;2023-03-21T04:36:12;19.23;;;18.33;;
18021;SDS011;9136;48.822;7.966;2023-03-21T04:39:13;21.03;;;20.10;;
18021;SDS011;9136;48.822;7.966;2023-03-21T04:42:01;19.13;;;18.13;;
18021;SDS011;9136;48.822;7.966;2023-03-21T04:44:49;21.73;;;20.63;;
18021;SDS011;9136;48.822;7.966;2023-03-21T04:47:37;20.87;;;19.87;;
18021;SDS011;9136;48.822;7.966;2023-03-21T04:50:25;18.37;;;17.37;;
18021;SDS011;9136;48.822;7.966;2023-03-21T04:53:16;20.13;;;19.13;;
18021;SDS011;9136;48.822;7.966;2023-03-21T04:56:08;21.63;;;20.07;;
18021;SDS011;9136;48.822;7.966;2023-03-21T04:58:57;18.20;;;17.37;;
18021;SDS011;9136;48.822;7.966;2023-03-21T05:01:45;21.83;;;20.73;;
18021;SDS011;9136;48.822;7.966;2023-03-21T05:04:33;18.40;;;17.57;;
18021;SDS011;9136;48.822;7.966;2023-03-21T05:07:21;17.37;;;16.57;;
18021;SDS011;9136;48.822;7.966;2023-03-21T05:10:11;19.23;;;18.33;;
18021;SDS011;9136;48.822;7.966;2023-03-21T05:13:03;19.20;;;18.37;;
18021;SDS011;9136;48.822;7.966;2023-03-21T05:15:51;19.80;;;18.90;;
18021;SDS011;9136;48.822;7.966;2023-03-21T05:18:40;21.27;;;20.27;;
18021;SDS011;9136;48.822;7.966;2023-03-21T05:21:30;21.77;;;20.77;;
18021;SDS011;9136;48.822;7.966;2023-03-21T05:24:26;18.80;;;17.93;;
18021;SDS011;9136;48.822;7.966;2023-03-21T05:27:14;19.50;;;18.60;;
18021;SDS011;9136;48.822;7.966;2023-03-21T05:30:23;18.23;;;17.43;;
18021;SDS011;9136;48.822;7.966;2023-03-21T05:33:11;19.07;;;18.07;;
18021;SDS011;9136;48.822;7.966;2023-03-21T05:35:59;17.53;;;16.73;;
18021;SDS011;9136;48.822;7.966;2023-03-21T05:38:49;19.80;;;18.90;;
18021;SDS011;9136;48.822;7.966;2023-03-21T05:41:37;20.27;;;19.27;;
18021;SDS011;9136;48.822;7.966;2023-03-21T05:44:27;15.50;;;14.80;;
18021;SDS011;9136;48.822;7.966;2023-03-21T05:47:17;22.57;;;21.53;;
18021;SDS011;9136;48.822;7.966;2023-03-21T05:50:05;18.83;;;17.93;;
18021;SDS011;9136;48.822;7.966;2023-03-21T05:52:54;16.03;;;15.33;;
18021;SDS011;9136;48.822;7.966;2023-03-21T05:55:48;21.73;;;20.70;;
18021;SDS011;9136;48.822;7.966;2023-03-21T05:59:00;17.97;;;17.17;;
18021;SDS011;9136;48.822;7.966;2023-03-21T06:01:52;19.63;;;18.73;;
18021;SDS011;9136;48.822;7.966;2023-03-21T06:04:47;18.73;;;17.73;;
18021;SDS011;9136;48.822;7.966;2023-03-21T06:07:37;20.30;;;19.30;;
18021;SDS011;9136;48.822;7.966;2023-03-21T06:10:27;18.50;;;17.70;;
18021;SDS011;9136;48.822;7.966;2023-03-21T06:13:16;19.07;;;18.20;;
18021;SDS011;9136;48.822;7.966;2023-03-21T06:16:06;18.33;;;17.50;;
18021;SDS011;9136;48.822;7.966;2023-03-21T06:18:59;17.00;;;16.00;;
18021;SDS011;9136;48.822;7.966;2023-03-21T06:21:54;17.97;;;17.17;;
18021;SDS011;9136;48.822;7.966;2023-03-21T06:24:46;21.23;;;20.23;;
18021;SDS011;9136;48.822;7.966;2023-03-21T06:27:36;17.20;;;16.40;;
18021;SDS011;9136;48.822;7.966;2023-03-21T06:30:24;18.60;;;17.80;;
18021;SDS011;9136;48.822;7.966;2023-03-21T06:33:12;17.63;;;16.83;;
18021;SDS011;9136;48.822;7.966;2023-03-21T06:36:00;17.37;;;16.57;;
18021;SDS011;9136;48.822;7.966;2023-03-21T06:38:51;16.63;;;15.93;;
18021;SDS011;9136;48.822;7.966;2023-03-21T06:41:40;19.70;;;18.80;;
18021;SDS011;9136;48.822;7.966;2023-03-21T06:44:31;20.90;;;19.90;;
18021;SDS011;9136;48.822;7.966;2023-03-21T06:47:21;19.13;;;18.23;;
18021;SDS011;9136;48.822;7.966;2023-03-21T06:50:09;17.50;;;16.50;;
18021;SDS011;9136;48.822;7.966;2023-03-21T06:52:57;19.23;;;18.13;;
18021;SDS011;9136;48.822;7.966;2023-03-21T06:55:49;19.40;;;18.50;;
18021;SDS011;9136;48.822;7.966;2023-03-21T06:58:38;19.77;;;18.57;;
18021;SDS011;9136;48.822;7.966;2023-03-21T07:01:26;18.63;;;17.70;;
18021;SDS011;9136;48.822;7.966;2023-03-21T07:04:16;17.97;;;17.17;;
18021;SDS011;9136;48.822;7.966;2023-03-21T07:07:04;19.73;;;18.83;;
18021;SDS011;9136;48.822;7.966;2023-03-21T07:09:53;18.20;;;17.30;;
18021;SDS011;9136;48.822;7.966;2023-03-21T07:12:42;18.50;;;17.60;;
18021;SDS011;9136;48.822;7.966;2023-03-21T07:15:31;18.53;;;17.63;;
18021;SDS011;9136;48.822;7.966;2023-03-21T07:18:22;17.70;;;16.90;;
18021;SDS011;9136;48.822;7.966;2023-03-21T07:21:10;18.20;;;17.40;;
18021;SDS011;9136;48.822;7.966;2023-03-21T07:23:58;17.17;;;16.37;;
18021;SDS011;9136;48.822;7.966;2023-03-21T07:26:46;16.63;;;15.80;;
18021;SDS011;9136;48.822;7.966;2023-03-21T07:29:35;16.97;;;16.17;;
18021;SDS011;9136;48.822;7.966;2023-03-21T07:32:23;18.63;;;17.73;;
18021;SDS011;9136;48.822;7.966;2023-03-21T07:35:15;17.40;;;16.60;;
18021;SDS011;9136;48.822;7.966;2023-03-21T07:38:04;18.47;;;17.63;;
18021;SDS011;9136;48.822;7.966;2023-03-21T07:40:52;16.20;;;15.43;;
18021;SDS011;9136;48.822;7.966;2023-03-21T07:43:40;16.07;;;15.37;;
18021;SDS011;9136;48.822;7.966;2023-03-21T07:46:29;16.20;;;15.50;;
18021;SDS011;9136;48.822;7.966;2023-03-21T07:49:17;18.60;;;17.70;;
18021;SDS011;9136;48.822;7.966;2023-03-21T07:52:05;16.30;;;15.50;;
18021;SDS011;9136;48.822;7.966;2023-03-21T07:54:53;17.60;;;16.77;;
18021;SDS011;9136;48.822;7.966;2023-03-21T07:57:41;19.73;;;18.67;;
18021;SDS011;9136;48.822;7.966;2023-03-21T08:00:29;16.00;;;15.30;;
18021;SDS011;9136;48.822;7.966;2023-03-21T08:03:18;18.53;;;17.63;;
18021;SDS011;9136;48.822;7.966;2023-03-21T08:06:07;16.63;;;15.93;;
18021;SDS011;9136;48.822;7.966;2023-03-21T08:08:55;15.90;;;15.10;;
18021;SDS011;9136;48.822;7.966;2023-03-21T08:11:43;18.03;;;17.10;;
18021;SDS011;9136;48.822;7.966;2023-03-21T08:14:31;16.60;;;15.87;;
18021;SDS011;9136;48.822;7.966;2023-03-21T08:17:19;18.53;;;17.67;;
18021;SDS011;9136;48.822;7.966;2023-03-21T08:20:10;14.57;;;13.97;;
18021;SDS011;9136;48.822;7.966;2023-03-21T08:22:59;19.27;;;18.37;;
18021;SDS011;9136;48.822;7.966;2023-03-21T08:25:49;18.23;;;17.23;;
18021;SDS011;9136;48.822;7.966;2023-03-21T08:28:38;14.63;;;13.93;;
18021;SDS011;9136;48.822;7.966;2023-03-21T08:31:26;17.77;;;16.97;;
18021;SDS011;9136;48.822;7.966;2023-03-21T08:34:14;16.43;;;15.63;;
18021;SDS011;9136;48.822;7.966;2023-03-21T08:37:04;18.77;;;17.97;;
18021;SDS011;9136;48.822;7.966;2023-03-21T08:39:52;19.53;;;18.63;;
18021;SDS011;9136;48.822;7.966;2023-03-21T08:42:40;17.47;;;16.63;;
18021;SDS011;9136;48.822;7.966;2023-03-21T08:45:28;17.27;;;16.47;;
18021;SDS011;9136;48.822;7.966;2023-03-21T08:48:16;18.23;;;17.40;;
18021;SDS011;9136;48.822;7.966;2023-03-21T08:51:04;16.17;;;15.47;;
18021;SDS011;9136;48.822;7.966;2023-03-21T08:53:54;19.27;;;18.37;;
18021;SDS011;9136;48.822;7.966;2023-03-21T08:56:41;15.67;;;14.97;;
18021;SDS011;9136;48.822;7.966;2023-03-21T08:59:30;14.93;;;14.03;;
18021;SDS011;9136;48.822;7.966;2023-03-21T09:02:18;17.43;;;16.63;;
18021;SDS011;9136;48.822;7.966;2023-03-21T09:05:06;17.07;;;16.27;;
18021;SDS011;9136;48.822;7.966;2023-03-21T09:07:56;16.53;;;15.80;;
18021;SDS011;9136;48.822;7.966;2023-03-21T09:10:49;15.07;;;14.37;;
18021;SDS011;9136;48.822;7.966;2023-03-21T09:13:39;16.03;;;15.33;;
18021;SDS011;9136;48.822;7.966;2023-03-21T09:16:27;17.20;;;16.23;;
18021;SDS011;9136;48.822;7.966;2023-03-21T09:19:16;16.97;;;16.07;;
18021;SDS011;9136;48.822;7.966;2023-03-21T09:22:04;15.50;;;14.80;;
18021;SDS011;9136;48.822;7.966;2023-03-21T09:24:59;16.07;;;15.37;;
18021;SDS011;9136;48.822;7.966;2023-03-21T09:27:54;15.57;;;14.77;;
18021;SDS011;9136;48.822;7.966;2023-03-21T09:30:43;16.50;;;15.73;;
18021;SDS011;9136;48.822;7.966;2023-03-21T09:33:31;18.00;;;17.13;;
18021;SDS011;9136;48.822;7.966;2023-03-21T09:36:20;15.83;;;15.10;;
18021;SDS011;9136;48.822;7.966;2023-03-21T09:39:09;15.67;;;14.87;;
18021;SDS011;9136;48.822;7.966;2023-03-21T09:42:02;19.27;;;18.10;;
18021;SDS011;9136;48.822;7.966;2023-03-21T09:45:09;18.67;;;17.17;;
18021;SDS011;9136;48.822;7.966;2023-03-21T09:48:03;16.47;;;15.67;;
18021;SDS011;9136;48.822;7.966;2023-03-21T09:50:55;14.37;;;13.67;;
18021;SDS011;9136;48.822;7.966;2023-03-21T09:53:44;15.97;;;15.27;;
18021;SDS011;9136;48.822;7.966;2023-03-21T09:56:35;16.33;;;15.63;;
18021;SDS011;9136;48.822;7.966;2023-03-21T09:59:26;14.93;;;14.17;;
18021;SDS011;9136;48.822;7.966;2023-03-21T10:02:28;15.07;;;14.37;;
18021;SDS011;9136;48.822;7.966;2023-03-21T10:05:23;14.33;;;13.73;;
18021;SDS011;9136;48.822;7.966;2023-03-21T10:08:13;17.17;;;16.30;;
18021;SDS011;9136;48.822;7.966;2023-03-21T10:11:05;17.93;;;17.10;;
18021;SDS011;9136;48.822;7.966;2023-03-21T10:13:58;16.10;;;15.40;;
18021;SDS011;9136;48.822;7.966;2023-03-21T10:16:51;16.37;;;15.67;;
18021;SDS011;9136;48.822;7.966;2023-03-21T10:19:48;13.53;;;12.93;;
18021;SDS011;9136;48.822;7.966;2023-03-21T10:22:42;15.57;;;14.80;;
18021;SDS011;9136;48.822;7.966;2023-03-21T10:25:33;15.07;;;14.27;;
18021;SDS011;9136;48.822;7.966;2023-03-21T10:28:24;14.33;;;13.63;;
18021;SDS011;9136;48.822;7.966;2023-03-21T10:31:16;14.80;;;14.17;;
18021;SDS011;9136;48.822;7.966;2023-03-21T10:34:06;14.23;;;13.53;;
18021;SDS011;9136;48.822;7.966;2023-03-21T10:37:02;15.40;;;14.63;;
18021;SDS011;9136;48.822;7.966;2023-03-21T10:39:52;14.57;;;13.97;;
18021;SDS011;9136;48.822;7.966;2023-03-21T10:42:41;13.60;;;13.00;;
18021;SDS011;9136;48.822;7.966;2023-03-21T10:45:29;16.87;;;16.07;;
18021;SDS011;9136;48.822;7.966;2023-03-21T10:48:22;15.60;;;14.90;;
18021;SDS011;9136;48.822;7.966;2023-03-21T10:51:14;16.40;;;15.60;;
18021;SDS011;9136;48.822;7.966;2023-03-21T10:54:10;14.00;;;13.30;;
18021;SDS011;9136;48.822;7.966;2023-03-21T10:57:02;16.30;;;15.60;;
18021;SDS011;9136;48.822;7.966;2023-03-21T10:59:53;15.50;;;14.80;;
18021;SDS011;9136;48.822;7.966;2023-03-21T11:02:45;14.97;;;14.27;;
18021;SDS011;9136;48.822;7.966;2023-03-21T11:05:35;14.83;;;14.13;;
18021;SDS011;9136;48.822;7.966;2023-03-21T11:08:26;16.43;;;15.63;;
18021;SDS011;9136;48.822;7.966;2023-03-21T11:11:20;12.80;;;12.20;;
18021;SDS011;9136;48.822;7.966;2023-03-21T11:14:23;13.97;;;13.37;;
18021;SDS011;9136;48.822;7.966;2023-03-21T11:17:19;15.30;;;14.30;;
18021;SDS011;9136;48.822;7.966;2023-03-21T11:20:10;14.07;;;13.27;;
18021;SDS011;9136;48.822;7.966;2023-03-21T11:23:04;14.23;;;13.63;;
18021;SDS011;9136;48.822;7.966;2023-03-21T11:25:53;14.27;;;13.57;;
18021;SDS011;9136;48.822;7.966;2023-03-21T11:28:42;12.77;;;12.27;;
18021;SDS011;9136;48.822;7.966;2023-03-21T11:31:35;13.40;;;12.80;;
18021;SDS011;9136;48.822;7.966;2023-03-21T11:34:25;13.73;;;13.13;;
18021;SDS011;9136;48.822;7.966;2023-03-21T11:37:19;13.23;;;12.63;;
18021;SDS011;9136;48.822;7.966;2023-03-21T11:40:17;13.80;;;13.20;;
18021;SDS011;9136;48.822;7.966;2023-03-21T11:46:21;15.00;;;14.25;;
18021;SDS011;9136;48.822;7.966;2023-03-21T11:49:09;13.95;;;13.35;;
18021;SDS011;9136;48.822;7.966;2023-03-21T11:52:01;14.20;;;13.55;;
18021;SDS011;9136;48.822;7.966;2023-03-21T11:55:02;14.38;;;13.68;;
18021;SDS011;9136;48.822;7.966;2023-03-21T11:58:04;13.70;;;13.10;;
18021;SDS011;9136;48.822;7.966;2023-03-21T12:01:02;14.20;;;13.55;;
18021;SDS011;9136;48.822;7.966;2023-03-21T12:04:00;12.73;;;12.18;;
18021;SDS011;9136;48.822;7.966;2023-03-21T12:06:55;13.27;;;12.68;;
18021;SDS011;9136;48.822;7.966;2023-03-21T12:09:49;13.88;;;13.27;;
18021;SDS011;9136;48.822;7.966;2023-03-21T12:12:45;14.15;;;13.45;;
18021;SDS011;9136;48.822;7.966;2023-03-21T12:15:41;14.48;;;13.77;;
18021;SDS011;9136;48.822;7.966;2023-03-21T12:18:40;13.40;;;12.80;;
18021;SDS011;9136;48.822;7.966;2023-03-21T12:21:47;13.77;;;13.13;;
18021;SDS011;9136;48.822;7.966;2023-03-21T12:24:42;12.65;;;12.02;;
18021;SDS011;9136;48.822;7.966;2023-03-21T12:27:38;13.43;;;12.80;;
18021;SDS011;9136;48.822;7.966;2023-03-21T12:30:37;15.23;;;14.52;;
18021;SDS011;9136;48.822;7.966;2023-03-21T12:33:41;11.90;;;11.30;;
18021;SDS011;9136;48.822;7.966;2023-03-21T12:36:52;13.98;;;12.80;;
18021;SDS011;9136;48.822;7.966;2023-03-21T12:39:56;13.45;;;12.85;;
18021;SDS011;9136;48.822;7.966;2023-03-21T12:42:58;14.07;;;13.38;;
18021;SDS011;9136;48.822;7.966;2023-03-21T12:46:02;12.93;;;12.32;;
18021;SDS011;9136;48.822;7.966;2023-03-21T12:48:52;12.77;;;12.18;;
18021;SDS011;9136;48.822;7.966;2023-03-21T12:51:45;13.32;;;12.63;;
18021;SDS011;9136;48.822;7.966;2023-03-21T12:54:39;12.98;;;12.40;;
18021;SDS011;9136;48.822;7.966;2023-03-21T12:57:31;11.85;;;11.30;;
18021;SDS011;9136;48.822;7.966;2023-03-21T13:00:24;13.18;;;12.57;;
18021;SDS011;9136;48.822;7.966;2023-03-21T13:03:16;13.68;;;12.98;;
18021;SDS011;9136;48.822;7.966;2023-03-21T13:06:07;13.25;;;12.65;;
18021;SDS011;9136;48.822;7.966;2023-03-21T13:08:59;12.00;;;11.50;;
18021;SDS011;9136;48.822;7.966;2023-03-21T13:11:54;13.45;;;12.85;;
18021;SDS011;9136;48.822;7.966;2023-03-21T13:14:48;12.70;;;12.13;;
18021;SDS011;9136;48.822;7.966;2023-03-21T13:17:47;13.63;;;13.02;;
18021;SDS011;9136;48.822;7.966;2023-03-21T13:20:42;12.80;;;12.20;;
18021;SDS011;9136;48.822;7.966;2023-03-21T13:23:34;11.70;;;11.20;;
18021;SDS011;9136;48.822;7.966;2023-03-21T13:26:30;13.95;;;13.35;;
18021;SDS011;9136;48.822;7.966;2023-03-21T13:29:22;13.13;;;12.52;;
18021;SDS011;9136;48.822;7.966;2023-03-21T13:32:15;12.77;;;12.05;;
18021;SDS011;9136;48.822;7.966;2023-03-21T13:35:12;13.57;;;12.98;;
18021;SDS011;9136;48.822;7.966;2023-03-21T13:38:03;12.83;;;12.23;;
18021;SDS011;9136;48.822;7.966;2023-03-21T13:40:58;12.97;;;12.37;;
18021;SDS011;9136;48.822;7.966;2023-03-21T13:43:52;12.37;;;11.87;;
18021;SDS011;9136;48.822;7.966;2023-03-21T13:46:44;12.87;;;12.30;;
18021;SDS011;9136;48.822;7.966;2023-03-21T13:49:39;13.37;;;12.77;;
18021;SDS011;9136;48.822;7.966;2023-03-21T13:52:27;13.40;;;12.80;;
18021;SDS011;9136;48.822;7.966;2023-03-21T13:55:15;14.10;;;13.50;;
18021;SDS011;9136;48.822;7.966;2023-03-21T13:58:21;13.20;;;12.60;;
18021;SDS011;9136;48.822;7.966;2023-03-21T14:01:15;14.47;;;13.87;;
18021;SDS011;9136;48.822;7.966;2023-03-21T14:04:11;13.13;;;12.53;;
18021;SDS011;9136;48.822;7.966;2023-03-21T14:07:01;13.53;;;12.93;;
18021;SDS011;9136;48.822;7.966;2023-03-21T14:09:54;13.63;;;13.03;;
18021;SDS011;9136;48.822;7.966;2023-03-21T14:12:47;14.03;;;13.33;;
18021;SDS011;9136;48.822;7.966;2023-03-21T14:15:38;13.47;;;12.83;;
18021;SDS011;9136;48.822;7.966;2023-03-21T14:18:29;13.43;;;12.83;;
18021;SDS011;9136;48.822;7.966;2023-03-21T14:21:18;15.87;;;15.00;;
18021;SDS011;9136;48.822;7.966;2023-03-21T14:24:10;14.40;;;13.70;;
18021;SDS011;9136;48.822;7.966;2023-03-21T14:27:00;14.70;;;14.03;;
18021;SDS011;9136;48.822;7.966;2023-03-21T14:29:49;13.00;;;12.43;;
18021;SDS011;9136;48.822;7.966;2023-03-21T14:32:38;13.40;;;12.80;;
18021;SDS011;9136;48.822;7.966;2023-03-21T14:35:27;12.53;;;12.00;;
18021;SDS011;9136;48.822;7.966;2023-03-21T14:38:21;14.50;;;13.90;;
18021;SDS011;9136;48.822;7.966;2023-03-21T14:41:20;13.17;;;12.57;;
18021;SDS011;9136;48.822;7.966;2023-03-21T14:47:16;12.73;;;12.23;;
18021;SDS011;9136;48.822;7.966;2023-03-21T14:50:05;13.30;;;12.70;;
18021;SDS011;9136;48.822;7.966;2023-03-21T14:52:56;13.03;;;12.43;;
18021;SDS011;9136;48.822;7.966;2023-03-21T14:55:46;14.30;;;13.70;;
18021;SDS011;9136;48.822;7.966;2023-03-21T14:58:38;13.90;;;13.30;;
18021;SDS011;9136;48.822;7.966;2023-03-21T15:01:29;12.70;;;12.10;;
18021;SDS011;9136;48.822;7.966;2023-03-21T15:04:19;14.80;;;14.13;;
18021;SDS011;9136;48.822;7.966;2023-03-21T15:07:21;13.90;;;13.30;;
18021;SDS011;9136;48.822;7.966;2023-03-21T15:10:13;12.50;;;12.00;;
18021;SDS011;9136;48.822;7.966;2023-03-21T15:13:11;14.87;;;14.07;;
18021;SDS011;9136;48.822;7.966;2023-03-21T15:16:01;12.93;;;12.33;;
18021;SDS011;9136;48.822;7.966;2023-03-21T15:18:50;14.20;;;13.60;;
18021;SDS011;9136;48.822;7.966;2023-03-21T15:21:40;13.53;;;12.83;;
18021;SDS011;9136;48.822;7.966;2023-03-21T15:24:32;13.33;;;12.73;;
18021;SDS011;9136;48.822;7.966;2023-03-21T15:27:25;14.17;;;13.57;;
18021;SDS011;9136;48.822;7.966;2023-03-21T15:30:19;16.23;;;14.97;;
18021;SDS011;9136;48.822;7.966;2023-03-21T15:33:09;13.43;;;12.83;;
18021;SDS011;9136;48.822;7.966;2023-03-21T15:35:59;14.10;;;13.50;;
18021;SDS011;9136;48.822;7.966;2023-03-21T15:38:47;14.37;;;13.77;;
18021;SDS011;9136;48.822;7.966;2023-03-21T15:41:36;15.80;;;15.10;;
18021;SDS011;9136;48.822;7.966;2023-03-21T15:44:24;16.33;;;15.63;;
18021;SDS011;9136;48.822;7.966;2023-03-21T15:47:14;13.80;;;13.20;;
18021;SDS011;9136;48.822;7.966;2023-03-21T15:50:06;14.27;;;13.67;;
18021;SDS011;9136;48.822;7.966;2023-03-21T15:52:57;16.73;;;15.73;;
18021;SDS011;9136;48.822;7.966;2023-03-21T15:55:47;16.40;;;15.70;;
18021;SDS011;9136;48.822;7.966;2023-03-21T15:58:38;14.53;;;13.77;;
18021;SDS011;9136;48.822;7.966;2023-03-21T16:01:31;16.37;;;15.57;;
18021;SDS011;9136;48.822;7.966;2023-03-21T16:04:25;15.23;;;14.53;;
18021;SDS011;9136;48.822;7.966;2023-03-21T16:07:13;14.50;;;13.87;;
18021;SDS011;9136;48.822;7.966;2023-03-21T16:10:02;13.87;;;13.27;;
18021;SDS011;9136;48.822;7.966;2023-03-21T16:12:50;15.03;;;14.33;;
18021;SDS011;9136;48.822;7.966;2023-03-21T16:15:38;18.67;;;17.57;;
18021;SDS011;9136;48.822;7.966;2023-03-21T16:18:26;18.60;;;16.93;;
18021;SDS011;9136;48.822;7.966;2023-03-21T16:21:19;19.60;;;18.27;;
18021;SDS011;9136;48.822;7.966;2023-03-21T16:24:08;18.93;;;17.23;;
18021;SDS011;9136;48.822;7.966;2023-03-21T16:26:57;13.23;;;12.63;;
18021;SDS011;9136;48.822;7.966;2023-03-21T16:29:45;16.50;;;15.70;;
18021;SDS011;9136;48.822;7.966;2023-03-21T16:32:33;14.10;;;13.20;;
18021;SDS011;9136;48.822;7.966;2023-03-21T16:35:21;13.87;;;13.27;;
18021;SDS011;9136;48.822;7.966;2023-03-21T16:38:12;15.43;;;14.63;;
18021;SDS011;9136;48.822;7.966;2023-03-21T16:41:00;15.27;;;14.47;;
18021;SDS011;9136;48.822;7.966;2023-03-21T16:43:49;14.77;;;14.07;;
18021;SDS011;9136;48.822;7.966;2023-03-21T16:46:39;15.20;;;14.23;;
18021;SDS011;9136;48.822;7.966;2023-03-21T16:49:27;14.07;;;13.47;;
18021;SDS011;9136;48.822;7.966;2023-03-21T16:52:17;16.30;;;15.50;;
18021;SDS011;9136;48.822;7.966;2023-03-21T16:55:07;14.87;;;14.17;;
18021;SDS011;9136;48.822;7.966;2023-03-21T16:57:54;14.17;;;13.57;;
18021;SDS011;9136;48.822;7.966;2023-03-21T17:00:42;13.77;;;13.17;;
18021;SDS011;9136;48.822;7.966;2023-03-21T17:03:30;15.00;;;14.30;;
18021;SDS011;9136;48.822;7.966;2023-03-21T17:06:20;16.03;;;15.33;;
18021;SDS011;9136;48.822;7.966;2023-03-21T17:09:09;15.20;;;14.50;;
18021;SDS011;9136;48.822;7.966;2023-03-21T17:12:02;15.00;;;14.30;;
18021;SDS011;9136;48.822;7.966;2023-03-21T17:14:55;15.27;;;14.57;;